createdAt,value
2017-11-17T00:01:04.726Z,25.87
2017-11-17T00:03:33.099Z,27.10
2017-11-17T00:06:01.438Z,23.77
2017-11-17T00:08:29.752Z,27.70
2017-11-17T00:10:58.087Z,27.53
2017-11-17T00:13:26.407Z,27.67
2017-11-17T00:15:54.756Z,26.50
2017-11-17T00:18:23.158Z,26.43
2017-11-17T00:20:51.498Z,23.97
2017-11-17T00:23:20.990Z,25.00
2017-11-17T00:25:49.300Z,28.33
2017-11-17T00:28:17.651Z,25.90
2017-11-17T00:30:45.977Z,23.80
2017-11-17T00:33:14.432Z,25.30
2017-11-17T00:35:42.744Z,25.83
2017-11-17T00:38:11.058Z,24.73
2017-11-17T00:40:39.555Z,24.23
2017-11-17T00:43:07.901Z,23.40
2017-11-17T00:45:36.227Z,22.40
2017-11-17T00:48:09.140Z,23.53
2017-11-17T00:50:40.455Z,23.77
2017-11-17T00:53:11.798Z,25.60
2017-11-17T00:55:40.332Z,23.40
2017-11-17T00:58:08.690Z,25.07
2017-11-17T01:00:37.061Z,26.13
2017-11-17T01:03:05.387Z,24.20
2017-11-17T01:05:33.714Z,24.90
2017-11-17T01:08:02.045Z,25.73
2017-11-17T01:10:30.552Z,28.67
2017-11-17T01:12:58.861Z,29.30
2017-11-17T01:15:27.169Z,26.50
2017-11-17T01:17:55.514Z,26.63
2017-11-17T01:20:23.853Z,27.27
2017-11-17T01:22:52.175Z,26.30
2017-11-17T01:25:20.475Z,28.03
2017-11-17T01:27:48.828Z,31.00
2017-11-17T01:30:17.151Z,28.00
2017-11-17T01:32:45.492Z,27.63
2017-11-17T01:35:13.797Z,28.17
2017-11-17T01:37:42.125Z,26.33
2017-11-17T01:40:10.481Z,29.43
2017-11-17T01:45:13.469Z,26.10
2017-11-17T01:47:41.760Z,26.83
2017-11-17T01:50:10.144Z,28.93
2017-11-17T01:52:38.466Z,28.50
2017-11-17T01:55:06.802Z,29.07
2017-11-17T01:57:35.129Z,26.77
2017-11-17T02:00:03.495Z,26.57
2017-11-17T02:02:31.835Z,28.47
2017-11-17T02:05:00.174Z,27.60
2017-11-17T02:07:28.500Z,27.87
2017-11-17T02:09:56.821Z,26.67
2017-11-17T02:12:25.175Z,26.90
2017-11-17T02:14:53.477Z,25.93
2017-11-17T02:17:21.830Z,26.00
2017-11-17T02:19:50.157Z,25.27
2017-11-17T02:22:18.496Z,23.43
2017-11-17T02:24:47.042Z,24.37
2017-11-17T02:27:15.358Z,19.93
2017-11-17T02:29:43.709Z,21.00
2017-11-17T02:32:12.041Z,21.07
2017-11-17T02:34:40.362Z,23.57
2017-11-17T02:37:08.740Z,21.03
2017-11-17T02:39:37.074Z,19.27
2017-11-17T02:42:05.416Z,19.70
2017-11-17T02:44:34.447Z,18.47
2017-11-17T02:47:02.831Z,18.73
2017-11-17T02:49:32.868Z,16.60
2017-11-17T02:52:02.862Z,14.77
2017-11-17T02:54:32.360Z,16.80
2017-11-17T02:57:00.729Z,14.97
2017-11-17T02:59:29.037Z,16.70
2017-11-17T03:01:57.368Z,14.70
2017-11-17T03:04:25.677Z,16.17
2017-11-17T03:06:54.058Z,16.03
2017-11-17T03:09:22.378Z,16.80
2017-11-17T03:11:50.729Z,16.20
2017-11-17T03:14:19.042Z,16.50
2017-11-17T03:16:47.357Z,19.90
2017-11-17T03:19:15.742Z,18.53
2017-11-17T03:21:44.042Z,20.03
2017-11-17T03:24:12.351Z,19.33
2017-11-17T03:26:40.696Z,16.73
2017-11-17T03:29:09.017Z,17.37
2017-11-17T03:31:37.451Z,16.77
2017-11-17T03:34:05.763Z,14.70
2017-11-17T03:36:34.089Z,15.13
2017-11-17T03:39:02.444Z,14.00
2017-11-17T03:41:30.761Z,16.10
2017-11-17T03:43:59.164Z,14.20
2017-11-17T03:46:27.478Z,16.77
2017-11-17T03:48:55.780Z,14.13
2017-11-17T03:51:24.152Z,18.30
2017-11-17T03:53:52.472Z,16.90
2017-11-17T03:56:20.817Z,16.40
2017-11-17T03:58:49.156Z,17.53
2017-11-17T04:01:17.480Z,17.70
2017-11-17T04:03:45.804Z,16.17
2017-11-17T04:06:14.109Z,18.90
2017-11-17T04:08:42.505Z,20.30
2017-11-17T04:11:10.814Z,16.87
2017-11-17T04:13:39.167Z,15.47
2017-11-17T04:16:07.497Z,16.90
2017-11-17T04:18:35.828Z,17.57
2017-11-17T04:21:05.124Z,20.20
2017-11-17T04:23:33.453Z,16.23
2017-11-17T04:26:01.917Z,23.77
2017-11-17T04:28:30.271Z,28.00
2017-11-17T04:30:58.610Z,26.13
2017-11-17T04:33:26.947Z,27.13
2017-11-17T04:35:55.280Z,28.23
2017-11-17T04:38:23.610Z,26.07
2017-11-17T04:40:51.934Z,26.10
2017-11-17T04:43:20.254Z,25.97
2017-11-17T04:45:48.568Z,26.73
2017-11-17T04:48:16.905Z,24.57
2017-11-17T04:50:45.221Z,25.30
2017-11-17T04:53:13.575Z,28.10
2017-11-17T04:55:41.881Z,26.40
2017-11-17T04:58:10.231Z,28.47
2017-11-17T05:00:38.580Z,26.27
2017-11-17T05:03:06.918Z,24.77
2017-11-17T05:05:35.237Z,24.90
2017-11-17T05:08:03.560Z,26.97
2017-11-17T05:10:31.945Z,26.03
2017-11-17T05:13:00.418Z,28.23
2017-11-17T05:15:28.749Z,25.30
2017-11-17T05:17:57.989Z,27.00
2017-11-17T05:20:26.339Z,29.10
2017-11-17T05:22:55.303Z,28.93
2017-11-17T05:25:23.612Z,29.47
2017-11-17T05:27:51.928Z,27.20
2017-11-17T05:30:20.259Z,26.43
2017-11-17T05:32:48.637Z,26.33
2017-11-17T05:35:16.947Z,27.47
2017-11-17T05:37:45.267Z,26.47
2017-11-17T05:40:14.245Z,29.00
2017-11-17T05:42:42.641Z,29.87
2017-11-17T05:45:11.074Z,29.77
2017-11-17T05:47:39.408Z,28.90
2017-11-17T05:50:07.753Z,30.10
2017-11-17T05:52:36.914Z,27.00
2017-11-17T05:55:05.231Z,26.60
2017-11-17T05:57:33.578Z,30.10
2017-11-17T06:00:01.976Z,28.80
2017-11-17T06:02:30.287Z,28.43
2017-11-17T06:04:58.986Z,29.67
2017-11-17T06:07:27.310Z,31.70
2017-11-17T06:09:55.633Z,31.10
2017-11-17T06:12:23.996Z,32.77
2017-11-17T06:14:52.304Z,32.30
2017-11-17T06:17:20.641Z,31.20
2017-11-17T06:19:48.981Z,31.10
2017-11-17T06:22:17.314Z,28.73
2017-11-17T06:24:45.782Z,29.20
2017-11-17T06:27:14.166Z,28.83
2017-11-17T06:29:42.885Z,31.50
2017-11-17T06:32:11.249Z,30.27
2017-11-17T06:34:39.582Z,30.23
2017-11-17T06:37:08.946Z,30.10
2017-11-17T06:39:38.166Z,28.37
2017-11-17T06:42:06.610Z,30.33
2017-11-17T06:44:35.115Z,32.77
2017-11-17T06:47:03.454Z,31.63
2017-11-17T06:49:31.757Z,33.03
2017-11-17T06:52:00.071Z,32.57
2017-11-17T06:54:28.445Z,27.83
2017-11-17T06:56:56.787Z,31.10
2017-11-17T06:59:25.184Z,30.57
2017-11-17T07:01:53.525Z,33.63
2017-11-17T07:04:21.854Z,30.10
2017-11-17T07:06:50.172Z,30.00
2017-11-17T07:09:18.606Z,31.97
2017-11-17T07:11:47.016Z,31.30
2017-11-17T07:14:15.347Z,30.27
2017-11-17T07:16:44.158Z,30.87
2017-11-17T07:19:12.641Z,32.77
2017-11-17T07:21:41.226Z,34.10
2017-11-17T07:24:09.722Z,32.20
2017-11-17T07:26:38.063Z,28.90
2017-11-17T07:29:06.412Z,32.53
2017-11-17T07:31:34.873Z,33.40
2017-11-17T07:34:04.202Z,32.63
2017-11-17T07:36:32.634Z,28.60
2017-11-17T07:39:00.993Z,30.20
2017-11-17T07:41:29.312Z,32.60
2017-11-17T07:43:57.716Z,31.77
2017-11-17T07:46:26.289Z,30.40
2017-11-17T07:48:54.671Z,32.00
2017-11-17T07:51:22.987Z,32.27
2017-11-17T07:53:51.301Z,34.30
2017-11-17T07:56:19.693Z,34.80
2017-11-17T07:58:48.037Z,31.03
2017-11-17T08:01:16.453Z,32.97
2017-11-17T08:03:44.785Z,29.43
2017-11-17T08:06:13.162Z,30.80
2017-11-17T08:08:41.692Z,31.43
2017-11-17T08:11:10.018Z,34.80
2017-11-17T08:13:38.378Z,38.70
2017-11-17T08:16:06.745Z,33.00
2017-11-17T08:18:48.518Z,34.47
2017-11-17T08:21:16.852Z,34.23
2017-11-17T08:23:45.208Z,35.10
2017-11-17T08:26:13.518Z,32.50
2017-11-17T08:28:41.865Z,32.27
2017-11-17T08:31:10.281Z,33.53
2017-11-17T08:33:38.668Z,34.10
2017-11-17T08:36:07.028Z,36.67
2017-11-17T08:38:35.371Z,35.23
2017-11-17T08:41:03.756Z,34.83
2017-11-17T08:43:32.152Z,33.40
2017-11-17T08:46:00.537Z,35.73
2017-11-17T08:48:28.865Z,32.70
2017-11-17T08:50:57.221Z,31.97
2017-11-17T08:53:25.523Z,32.13
2017-11-17T08:55:53.880Z,33.70
2017-11-17T08:58:22.257Z,35.00
2017-11-17T09:00:50.582Z,32.13
2017-11-17T09:03:18.984Z,35.47
2017-11-17T09:05:47.317Z,34.77
2017-11-17T09:08:15.649Z,35.50
2017-11-17T09:10:44.059Z,33.70
2017-11-17T09:13:12.375Z,31.10
2017-11-17T09:15:41.561Z,31.57
2017-11-17T09:18:09.896Z,30.07
2017-11-17T09:20:38.205Z,35.27
2017-11-17T09:23:06.579Z,31.50
2017-11-17T09:25:34.893Z,34.00
2017-11-17T09:28:03.267Z,35.80
2017-11-17T09:30:31.646Z,36.20
2017-11-17T09:33:00.118Z,30.17
2017-11-17T09:35:28.455Z,33.10
2017-11-17T09:37:57.632Z,33.10
2017-11-17T09:40:25.984Z,33.77
2017-11-17T09:42:54.462Z,33.03
2017-11-17T09:45:22.873Z,35.60
2017-11-17T09:47:51.291Z,35.93
2017-11-17T09:50:19.627Z,34.80
2017-11-17T09:52:47.934Z,35.30
2017-11-17T09:55:16.299Z,35.07
2017-11-17T09:57:44.644Z,33.63
2017-11-17T10:00:13.686Z,33.70
2017-11-17T10:02:42.004Z,34.60
2017-11-17T10:05:10.339Z,32.90
2017-11-17T10:07:38.690Z,34.00
2017-11-17T10:10:07.814Z,33.53
2017-11-17T10:12:36.152Z,39.83
2017-11-17T10:15:04.643Z,31.77
2017-11-17T10:17:33.025Z,32.27
2017-11-17T10:20:01.352Z,36.10
2017-11-17T10:22:30.387Z,34.27
2017-11-17T10:24:58.702Z,32.10
2017-11-17T10:27:27.055Z,31.07
2017-11-17T10:29:55.380Z,30.97
2017-11-17T10:32:23.708Z,32.17
2017-11-17T10:34:52.099Z,30.40
2017-11-17T10:37:20.401Z,33.60
2017-11-17T10:39:48.768Z,30.20
2017-11-17T10:42:17.102Z,32.20
2017-11-17T10:44:45.456Z,30.53
2017-11-17T10:47:13.836Z,32.17
2017-11-17T10:49:42.159Z,30.03
2017-11-17T10:52:10.487Z,31.40
2017-11-17T10:54:39.188Z,29.83
2017-11-17T10:57:08.329Z,32.83
2017-11-17T11:02:48.041Z,31.03
2017-11-17T11:05:16.490Z,31.70
2017-11-17T11:07:44.798Z,31.53
2017-11-17T11:10:13.438Z,31.50
2017-11-17T11:12:41.810Z,30.60
2017-11-17T11:15:10.501Z,30.60
2017-11-17T11:17:39.521Z,29.00
2017-11-17T11:20:07.852Z,30.43
2017-11-17T11:22:41.184Z,34.53
2017-11-17T11:25:09.526Z,30.60
2017-11-17T11:27:37.927Z,31.50
2017-11-17T11:30:06.262Z,31.53
2017-11-17T11:32:34.892Z,33.23
2017-11-17T11:35:03.242Z,30.40
2017-11-17T11:37:31.658Z,30.30
2017-11-17T11:40:00.047Z,30.10
2017-11-17T11:42:28.387Z,29.07
2017-11-17T11:44:56.941Z,33.00
2017-11-17T11:47:25.356Z,29.27
2017-11-17T11:49:53.698Z,31.60
2017-11-17T11:52:22.054Z,31.13
2017-11-17T11:54:50.734Z,33.30
2017-11-17T11:57:19.077Z,32.27
2017-11-17T11:59:47.422Z,31.43
2017-11-17T12:02:15.783Z,31.27
2017-11-17T12:04:44.078Z,30.60
2017-11-17T12:07:12.442Z,31.50
2017-11-17T12:09:40.780Z,32.77
2017-11-17T12:12:09.089Z,32.20
2017-11-17T12:14:37.438Z,31.73
2017-11-17T12:17:05.753Z,36.87
2017-11-17T12:19:36.213Z,31.97
2017-11-17T12:22:04.651Z,30.63
2017-11-17T12:24:32.987Z,30.20
2017-11-17T12:27:01.287Z,30.87
2017-11-17T12:29:29.624Z,31.97
2017-11-17T12:31:58.001Z,31.77
2017-11-17T12:34:26.342Z,28.27
2017-11-17T12:36:54.901Z,29.70
2017-11-17T12:39:23.219Z,28.70
2017-11-17T12:41:51.548Z,28.47
2017-11-17T12:44:19.858Z,29.00
2017-11-17T12:46:48.209Z,30.07
2017-11-17T12:49:16.554Z,29.83
2017-11-17T12:51:44.895Z,32.80
2017-11-17T12:54:13.313Z,32.87
2017-11-17T12:56:41.691Z,32.97
2017-11-17T12:59:10.027Z,31.80
2017-11-17T13:01:38.414Z,31.80
2017-11-17T13:04:06.773Z,29.63
2017-11-17T13:06:35.305Z,30.60
2017-11-17T13:09:03.652Z,32.40
2017-11-17T13:11:32.009Z,31.73
2017-11-17T13:14:00.320Z,29.13
2017-11-17T13:16:28.669Z,30.30
2017-11-17T13:18:57.025Z,32.00
2017-11-17T13:21:25.368Z,29.50
2017-11-17T13:23:53.689Z,30.30
2017-11-17T13:26:22.061Z,30.03
2017-11-17T13:28:50.385Z,29.50
2017-11-17T13:31:18.741Z,29.47
2017-11-17T13:33:47.134Z,28.70
2017-11-17T13:36:15.479Z,32.63
2017-11-17T13:38:43.869Z,31.30
2017-11-17T13:41:12.212Z,32.20
2017-11-17T13:43:40.537Z,33.20
2017-11-17T13:46:08.953Z,28.70
2017-11-17T13:48:38.357Z,28.97
2017-11-17T13:51:06.827Z,30.43
2017-11-17T13:53:35.213Z,29.63
2017-11-17T13:56:03.558Z,32.60
2017-11-17T13:58:31.960Z,31.23
2017-11-17T14:01:00.624Z,31.30
2017-11-17T14:03:29.027Z,30.20
2017-11-17T14:05:57.388Z,28.90
2017-11-17T14:08:25.770Z,31.10
2017-11-17T14:10:54.093Z,31.57
2017-11-17T14:13:22.455Z,30.77
2017-11-17T14:15:50.771Z,32.73
2017-11-17T14:18:19.236Z,31.17
2017-11-17T14:20:47.631Z,32.90
2017-11-17T14:23:15.989Z,33.00
2017-11-17T14:25:44.420Z,29.73
2017-11-17T14:30:47.294Z,30.40
2017-11-17T14:33:15.717Z,30.47
2017-11-17T14:35:44.077Z,29.43
2017-11-17T14:38:12.727Z,28.17
2017-11-17T14:40:41.113Z,31.37
2017-11-17T14:43:10.299Z,31.07
2017-11-17T14:45:38.642Z,30.77
2017-11-17T14:48:06.945Z,31.20
2017-11-17T14:50:35.284Z,31.47
2017-11-17T14:53:03.670Z,31.67
2017-11-17T14:55:32.026Z,32.50
2017-11-17T14:58:03.763Z,31.33
2017-11-17T15:00:32.151Z,33.33
2017-11-17T15:03:02.333Z,31.47
2017-11-17T15:05:30.687Z,31.20
2017-11-17T15:07:59.019Z,31.77
2017-11-17T15:10:27.466Z,32.10
2017-11-17T15:12:55.782Z,33.37
2017-11-17T15:15:24.118Z,32.40
2017-11-17T15:17:53.190Z,30.83
2017-11-17T15:20:21.600Z,34.90
2017-11-17T15:22:49.982Z,31.27
2017-11-17T15:25:18.343Z,30.20
2017-11-17T15:27:46.741Z,31.50
2017-11-17T15:30:15.159Z,29.80
2017-11-17T15:32:44.009Z,31.77
2017-11-17T15:35:12.530Z,34.17
2017-11-17T15:37:40.879Z,32.97
2017-11-17T15:40:09.297Z,33.60
2017-11-17T15:42:37.781Z,31.30
2017-11-17T15:45:06.159Z,33.67
2017-11-17T15:47:34.530Z,31.70
2017-11-17T15:50:03.168Z,33.77
2017-11-17T15:52:31.547Z,33.50
2017-11-17T15:54:59.962Z,31.73
2017-11-17T15:57:29.544Z,32.03
2017-11-17T15:59:57.968Z,34.50
2017-11-17T16:02:26.429Z,30.80
2017-11-17T16:04:54.818Z,30.40
2017-11-17T16:07:24.050Z,31.97
2017-11-17T16:09:52.475Z,32.53
2017-11-17T16:12:20.884Z,34.37
2017-11-17T16:14:49.214Z,37.27
2017-11-17T16:17:17.615Z,38.53
2017-11-17T16:19:45.955Z,33.60
2017-11-17T16:22:14.338Z,37.00
2017-11-17T16:24:42.741Z,33.10
2017-11-17T16:27:11.054Z,36.37
2017-11-17T16:29:39.639Z,33.80
2017-11-17T16:32:07.976Z,33.43
2017-11-17T16:34:36.442Z,33.50
2017-11-17T16:37:04.822Z,33.23
2017-11-17T16:39:33.160Z,33.00
2017-11-17T16:42:01.575Z,35.30
2017-11-17T16:44:30.123Z,32.67
2017-11-17T16:46:58.523Z,34.90
2017-11-17T16:49:26.826Z,31.20
2017-11-17T16:51:55.252Z,34.07
2017-11-17T16:54:23.650Z,31.90
2017-11-17T16:56:51.981Z,30.27
2017-11-17T16:59:20.316Z,33.20
2017-11-17T17:01:48.641Z,31.30
2017-11-17T17:04:17.112Z,32.80
2017-11-17T17:06:45.485Z,32.00
2017-11-17T17:09:13.945Z,33.43
2017-11-17T17:11:42.290Z,34.73
2017-11-17T17:14:10.607Z,36.10
2017-11-17T17:16:38.944Z,34.50
2017-11-17T17:19:07.279Z,33.93
2017-11-17T17:21:35.625Z,35.20
2017-11-17T17:24:04.093Z,38.10
2017-11-17T17:26:32.489Z,37.23
2017-11-17T17:29:00.856Z,34.97
2017-11-17T17:31:29.224Z,42.40
2017-11-17T17:33:57.526Z,37.90
2017-11-17T17:36:25.877Z,36.50
2017-11-17T17:38:54.226Z,37.43
2017-11-17T17:41:22.567Z,35.70
2017-11-17T17:43:50.877Z,33.67
2017-11-17T17:46:19.221Z,34.20
2017-11-17T17:48:47.541Z,33.83
2017-11-17T17:51:15.865Z,31.20
2017-11-17T17:53:44.991Z,28.83
2017-11-17T17:56:13.337Z,26.53
2017-11-17T17:58:41.683Z,29.70
2017-11-17T18:01:10.015Z,27.90
2017-11-17T18:03:38.332Z,30.07
2017-11-17T18:06:06.637Z,29.47
2017-11-17T18:08:34.970Z,29.27
2017-11-17T18:11:03.298Z,27.57
2017-11-17T18:13:31.663Z,28.83
2017-11-17T18:16:00.030Z,28.50
2017-11-17T18:18:28.667Z,28.20
2017-11-17T18:20:56.988Z,28.50
2017-11-17T18:23:25.361Z,26.17
2017-11-17T18:25:53.713Z,26.50
2017-11-17T18:28:22.046Z,27.27
2017-11-17T18:30:50.441Z,29.77
2017-11-17T18:33:18.711Z,29.70
2017-11-17T18:35:47.081Z,28.80
2017-11-17T18:38:16.260Z,26.50
2017-11-17T18:40:44.634Z,26.77
2017-11-17T18:43:13.010Z,26.40
2017-11-17T18:45:41.292Z,25.20
2017-11-17T18:48:09.609Z,27.37
2017-11-17T18:50:38.107Z,27.30
2017-11-17T18:53:06.411Z,27.43
2017-11-17T18:55:34.725Z,24.67
2017-11-17T18:58:03.068Z,26.80
2017-11-17T19:00:31.441Z,26.83
2017-11-17T19:02:59.769Z,28.33
2017-11-17T19:05:28.128Z,27.00
2017-11-17T19:07:56.514Z,27.00
2017-11-17T19:10:24.836Z,28.37
2017-11-17T19:12:53.182Z,25.43
2017-11-17T19:15:21.492Z,27.10
2017-11-17T19:17:49.802Z,30.50
2017-11-17T19:20:19.458Z,24.97
2017-11-17T19:22:47.783Z,30.30
2017-11-17T19:25:16.100Z,27.70
2017-11-17T19:27:44.448Z,27.47
2017-11-17T19:30:13.039Z,26.60
2017-11-17T19:32:41.325Z,28.03
2017-11-17T19:35:09.754Z,29.47
2017-11-17T19:37:38.055Z,25.87
2017-11-17T19:40:06.385Z,26.93
2017-11-17T19:42:34.731Z,27.23
2017-11-17T19:45:03.082Z,27.83
2017-11-17T19:47:31.394Z,27.50
2017-11-17T19:49:59.698Z,28.77
2017-11-17T19:52:28.024Z,28.23
2017-11-17T19:54:56.443Z,27.83
2017-11-17T19:57:24.760Z,26.90
2017-11-17T19:59:53.099Z,26.40
2017-11-17T20:02:21.455Z,27.50
2017-11-17T20:04:49.768Z,29.03
2017-11-17T20:07:18.094Z,27.87
2017-11-17T20:09:47.172Z,25.93
2017-11-17T20:12:15.484Z,27.10
2017-11-17T20:14:43.791Z,26.67
2017-11-17T20:17:12.119Z,25.50
2017-11-17T20:19:40.426Z,28.63
2017-11-17T20:22:08.910Z,27.87
2017-11-17T20:24:37.238Z,27.67
2017-11-17T20:27:05.603Z,25.97
2017-11-17T20:29:33.933Z,26.20
2017-11-17T20:32:02.244Z,28.93
2017-11-17T20:34:30.577Z,28.60
2017-11-17T20:36:58.921Z,28.77
2017-11-17T20:39:29.682Z,26.30
2017-11-17T20:41:58.095Z,26.40
2017-11-17T20:44:30.261Z,25.93
2017-11-17T20:46:58.593Z,25.20
2017-11-17T20:49:26.928Z,27.47
2017-11-17T20:51:55.273Z,26.70
2017-11-17T20:54:23.654Z,26.27
2017-11-17T20:56:52.079Z,24.57
2017-11-17T20:59:20.374Z,28.43
2017-11-17T21:01:48.752Z,26.33
2017-11-17T21:04:17.187Z,26.50
2017-11-17T21:06:45.579Z,25.33
2017-11-17T21:09:13.909Z,26.73
2017-11-17T21:11:42.286Z,27.03
2017-11-17T21:14:10.695Z,28.03
2017-11-17T21:16:39.014Z,27.37
2017-11-17T21:19:07.346Z,25.47
2017-11-17T21:21:35.693Z,28.47
2017-11-17T21:24:04.003Z,28.30
2017-11-17T21:26:32.326Z,29.53
2017-11-17T21:29:00.669Z,29.60
2017-11-17T21:31:28.991Z,28.80
2017-11-17T21:33:57.396Z,27.60
2017-11-17T21:36:25.744Z,28.83
2017-11-17T21:38:54.238Z,29.33
2017-11-17T21:41:22.627Z,30.10
2017-11-17T21:43:50.985Z,27.77
2017-11-17T21:46:20.286Z,28.73
2017-11-17T21:48:52.088Z,30.20
2017-11-17T21:51:20.404Z,29.80
2017-11-17T21:53:48.735Z,28.57
2017-11-17T21:56:17.066Z,28.93
2017-11-17T21:58:45.400Z,28.97
2017-11-17T22:01:13.711Z,29.17
2017-11-17T22:03:42.050Z,28.20
2017-11-17T22:06:10.397Z,30.03
2017-11-17T22:08:38.761Z,28.17
2017-11-17T22:11:07.230Z,31.77
2017-11-17T22:13:35.640Z,29.70
2017-11-17T22:16:03.942Z,29.73
2017-11-17T22:18:32.291Z,31.67
2017-11-17T22:21:00.624Z,29.10
2017-11-17T22:23:28.947Z,31.00
2017-11-17T22:25:57.287Z,35.27
2017-11-17T22:28:25.689Z,28.77
2017-11-17T22:30:54.047Z,28.10
2017-11-17T22:33:22.433Z,29.83
2017-11-17T22:35:50.794Z,30.53
2017-11-17T22:38:19.551Z,30.80
2017-11-17T22:40:47.871Z,29.67
2017-11-17T22:43:16.313Z,30.47
2017-11-17T22:45:44.625Z,29.80
2017-11-17T22:48:12.966Z,29.70
2017-11-17T22:50:41.332Z,30.37
2017-11-17T22:53:09.807Z,28.17
2017-11-17T22:55:38.112Z,28.43
2017-11-17T22:58:06.457Z,27.90
2017-11-17T23:00:34.769Z,29.80
2017-11-17T23:03:03.125Z,28.70
2017-11-17T23:05:31.455Z,26.90
2017-11-17T23:07:59.773Z,27.73
2017-11-17T23:10:28.298Z,27.77
2017-11-17T23:12:56.615Z,27.90
2017-11-17T23:15:24.934Z,26.97
2017-11-17T23:17:53.276Z,27.47
2017-11-17T23:20:21.577Z,27.83
2017-11-17T23:22:49.999Z,25.60
2017-11-17T23:25:18.310Z,27.10
2017-11-17T23:27:46.695Z,23.90
2017-11-17T23:30:15.060Z,26.70
2017-11-17T23:32:43.387Z,27.40
2017-11-17T23:35:11.714Z,25.77
2017-11-17T23:37:40.101Z,27.17
2017-11-17T23:40:08.424Z,28.80
2017-11-17T23:42:36.746Z,28.40
2017-11-17T23:45:05.118Z,28.80
2017-11-17T23:47:33.434Z,27.00
2017-11-17T23:50:01.810Z,28.80
2017-11-17T23:52:30.112Z,25.73
2017-11-17T23:54:58.434Z,28.07
2017-11-17T23:57:26.774Z,28.57
2017-11-17T23:59:55.152Z,26.23
